createdAt,value
2023-03-04T00:00:52.382Z,79.61
2023-03-04T00:03:19.084Z,80.39
2023-03-04T00:05:47.197Z,80.66
2023-03-04T00:08:13.697Z,80.48
2023-03-04T00:10:40.194Z,81.03
2023-03-04T00:13:06.673Z,81.66
2023-03-04T00:15:33.184Z,81.63
2023-03-04T00:17:59.617Z,81.52
2023-03-04T00:20:29.137Z,82.14
2023-03-04T00:22:58.584Z,81.41
2023-03-04T00:25:27.170Z,81.28
2023-03-04T00:27:53.729Z,81.44
2023-03-04T00:30:20.298Z,81.73
2023-03-04T00:32:46.813Z,81.88
2023-03-04T00:35:13.280Z,82.67
2023-03-04T00:37:39.737Z,83.12
2023-03-04T00:40:06.708Z,82.29
2023-03-04T00:42:33.224Z,82.55
2023-03-04T00:44:59.665Z,83.53
2023-03-04T00:47:27.093Z,84.08
2023-03-04T00:49:53.571Z,83.30
2023-03-04T00:52:19.993Z,84.16
2023-03-04T00:54:46.533Z,84.33
2023-03-04T00:57:13.034Z,84.69
2023-03-04T00:59:40.785Z,84.19
2023-03-04T01:02:07.338Z,84.97
2023-03-04T01:04:33.798Z,84.87
2023-03-04T01:07:00.331Z,84.94
2023-03-04T01:09:29.151Z,85.45
2023-03-04T01:11:55.613Z,85.68
2023-03-04T01:14:22.064Z,86.18
2023-03-04T01:16:49.387Z,85.86
2023-03-04T01:19:16.520Z,86.53
2023-03-04T01:21:43.025Z,86.22
2023-03-04T01:24:09.497Z,86.11
2023-03-04T01:26:35.964Z,86.64
2023-03-04T01:29:03.441Z,86.92
2023-03-04T01:31:33.329Z,87.00
2023-03-04T01:34:03.323Z,86.83
2023-03-04T01:36:31.557Z,87.57
2023-03-04T01:39:00.215Z,87.03
2023-03-04T01:41:27.304Z,87.71
2023-03-04T01:44:01.475Z,87.41
2023-03-04T01:46:30.062Z,87.89
2023-03-04T01:48:57.052Z,88.43
2023-03-04T01:51:23.888Z,88.45
2023-03-04T01:53:53.360Z,88.65
2023-03-04T01:56:24.546Z,87.67
2023-03-04T01:59:11.468Z,88.24
2023-03-04T02:01:39.271Z,89.10
2023-03-04T02:04:07.855Z,89.42
2023-03-04T02:06:36.276Z,89.12
2023-03-04T02:09:07.302Z,88.69
2023-03-04T02:11:36.553Z,88.28
2023-03-04T02:14:06.839Z,87.70
2023-03-04T02:16:36.405Z,87.13
2023-03-04T02:19:44.224Z,86.67
2023-03-04T02:22:10.824Z,86.38
2023-03-04T02:24:48.012Z,86.38
2023-03-04T02:27:14.551Z,86.20
2023-03-04T02:29:41.117Z,85.89
2023-03-04T02:32:11.409Z,86.38
2023-03-04T02:34:47.564Z,86.03
2023-03-04T02:37:14.444Z,86.39
2023-03-04T02:39:43.706Z,86.50
2023-03-04T02:42:10.813Z,86.30
2023-03-04T02:44:40.215Z,85.96
2023-03-04T02:47:10.136Z,86.29
2023-03-04T02:49:38.978Z,86.65
2023-03-04T02:52:19.588Z,86.35
2023-03-04T02:54:46.446Z,86.72
2023-03-04T02:57:14.881Z,86.76
2023-03-04T02:59:42.363Z,86.54
2023-03-04T03:02:10.201Z,86.42
2023-03-04T03:04:38.534Z,86.14
2023-03-04T03:07:07.070Z,85.80
2023-03-04T03:09:36.656Z,86.64
2023-03-04T03:12:03.275Z,86.20
2023-03-04T03:14:29.821Z,85.91
2023-03-04T03:16:56.282Z,86.74
2023-03-04T03:19:22.738Z,86.32
2023-03-04T03:21:50.233Z,86.94
2023-03-04T03:24:16.782Z,86.45
2023-03-04T03:26:43.304Z,86.31
2023-03-04T03:29:09.814Z,86.18
2023-03-04T03:31:39.381Z,86.81
2023-03-04T03:34:07.053Z,87.42
2023-03-04T03:36:33.554Z,87.41
2023-03-04T03:39:00.060Z,87.26
2023-03-04T03:41:26.542Z,86.98
2023-03-04T03:43:53.019Z,86.88
2023-03-04T03:46:19.486Z,85.80
2023-03-04T03:48:45.987Z,86.41
2023-03-04T03:51:12.462Z,87.29
2023-03-04T03:53:41.583Z,87.18
2023-03-04T03:56:11.194Z,87.10
2023-03-04T03:58:40.669Z,87.57
2023-03-04T04:01:09.218Z,87.50
2023-03-04T04:03:35.869Z,87.05
2023-03-04T04:06:02.403Z,87.20
2023-03-04T04:08:29.003Z,87.02
2023-03-04T04:10:55.446Z,87.53
2023-03-04T04:13:21.888Z,87.68
2023-03-04T04:15:48.308Z,87.12
2023-03-04T04:18:14.738Z,87.96
2023-03-04T04:20:41.299Z,87.42
2023-03-04T04:23:10.608Z,87.24
2023-03-04T04:25:37.146Z,87.49
2023-03-04T04:28:03.997Z,87.59
2023-03-04T04:30:30.474Z,87.54
2023-03-04T04:32:57.040Z,87.27
2023-03-04T04:35:23.651Z,86.89
2023-03-04T04:37:50.166Z,86.88
2023-03-04T04:40:16.892Z,86.59
2023-03-04T04:42:43.398Z,86.95
2023-03-04T04:45:13.194Z,86.14
2023-03-04T04:47:40.022Z,86.00
2023-03-04T04:50:07.126Z,86.95
2023-03-04T04:52:33.677Z,86.83
2023-03-04T04:55:00.163Z,87.35
2023-03-04T04:57:26.653Z,87.45
2023-03-04T04:59:53.221Z,87.64
2023-03-04T05:02:19.870Z,88.00
2023-03-04T05:04:46.523Z,86.73
2023-03-04T05:07:13.048Z,86.87
2023-03-04T05:09:41.772Z,87.09
2023-03-04T05:12:08.221Z,87.30
2023-03-04T05:14:34.728Z,87.11
2023-03-04T05:17:01.231Z,87.61
2023-03-04T05:19:27.689Z,87.50
2023-03-04T05:21:54.304Z,87.56
2023-03-04T05:24:20.899Z,87.93
2023-03-04T05:26:47.669Z,87.61
2023-03-04T05:29:14.152Z,87.74
2023-03-04T05:31:40.600Z,87.63
2023-03-04T05:34:07.437Z,88.30
2023-03-04T05:36:33.939Z,88.28
2023-03-04T05:39:00.452Z,88.49
2023-03-04T05:41:27.034Z,88.95
2023-03-04T05:43:53.594Z,88.83
2023-03-04T05:46:26.218Z,88.23
2023-03-04T05:48:54.132Z,88.45
2023-03-04T05:51:21.473Z,88.41
2023-03-04T05:53:49.143Z,88.96
2023-03-04T05:56:18.344Z,88.58
2023-03-04T05:58:48.039Z,88.35
2023-03-04T06:01:17.492Z,88.01
2023-03-04T06:03:49.211Z,88.26
2023-03-04T06:06:15.916Z,87.73
2023-03-04T06:08:44.477Z,87.66
2023-03-04T06:11:10.930Z,87.66
2023-03-04T06:13:38.258Z,88.13
2023-03-04T06:16:05.402Z,88.71
2023-03-04T06:18:31.911Z,89.56
2023-03-04T06:21:00.175Z,89.45
2023-03-04T06:23:27.763Z,89.93
2023-03-04T06:25:56.177Z,90.28
2023-03-04T06:28:23.339Z,90.17
2023-03-04T06:30:53.030Z,90.44
2023-03-04T06:33:19.785Z,90.20
2023-03-04T06:35:46.406Z,90.31
2023-03-04T06:38:15.989Z,90.33
2023-03-04T06:40:45.995Z,89.23
2023-03-04T06:43:16.464Z,89.41
2023-03-04T06:45:45.739Z,88.98
2023-03-04T06:48:15.664Z,88.60
2023-03-04T06:50:46.091Z,88.98
2023-03-04T06:53:16.411Z,89.33
2023-03-04T06:55:47.250Z,89.15
2023-03-04T06:58:20.649Z,89.46
2023-03-04T07:00:47.158Z,88.71
2023-03-04T07:03:17.873Z,89.32
2023-03-04T07:05:45.099Z,89.19
2023-03-04T07:08:14.142Z,89.01
2023-03-04T07:10:40.995Z,88.77
2023-03-04T07:13:07.522Z,88.24
2023-03-04T07:15:34.025Z,88.24
2023-03-04T07:18:00.484Z,88.29
2023-03-04T07:20:27.002Z,88.10
2023-03-04T07:22:53.544Z,88.07
2023-03-04T07:25:20.184Z,87.57
2023-03-04T07:27:46.670Z,87.76
2023-03-04T07:30:17.000Z,87.72
2023-03-04T07:32:46.642Z,88.77
2023-03-04T07:35:15.936Z,88.09
2023-03-04T07:37:47.149Z,87.10
2023-03-04T07:40:16.601Z,86.69
2023-03-04T07:42:49.901Z,86.55
2023-03-04T07:45:16.431Z,85.86
2023-03-04T07:47:46.193Z,85.09
2023-03-04T07:50:18.123Z,84.24
2023-03-04T07:52:50.884Z,83.33
2023-03-04T07:55:18.185Z,82.99
2023-03-04T07:57:47.486Z,82.35
2023-03-04T08:00:17.831Z,82.20
2023-03-04T08:02:47.902Z,80.85
2023-03-04T08:05:15.476Z,80.52
2023-03-04T08:07:43.762Z,80.03
2023-03-04T08:10:10.996Z,79.57
2023-03-04T08:12:37.431Z,79.60
2023-03-04T08:15:04.208Z,79.99
2023-03-04T08:17:30.789Z,80.21
2023-03-04T08:19:57.325Z,79.97
2023-03-04T08:22:23.799Z,79.64
2023-03-04T08:24:50.350Z,79.41
2023-03-04T08:27:16.894Z,79.15
2023-03-04T08:29:46.438Z,78.25
2023-03-04T08:32:15.833Z,78.51
2023-03-04T08:34:44.706Z,78.62
2023-03-04T08:37:11.267Z,79.12
2023-03-04T08:39:37.789Z,78.82
2023-03-04T08:42:04.241Z,77.85
2023-03-04T08:44:30.766Z,77.80
2023-03-04T08:46:57.409Z,77.47
2023-03-04T08:49:23.934Z,77.24
2023-03-04T08:51:50.394Z,76.87
2023-03-04T08:54:17.032Z,76.04
2023-03-04T08:56:46.346Z,76.31
2023-03-04T08:59:15.687Z,76.07
2023-03-04T09:01:44.386Z,76.24
2023-03-04T09:04:10.951Z,76.22
2023-03-04T09:06:37.471Z,76.11
2023-03-04T09:09:04.448Z,75.01
2023-03-04T09:11:31.688Z,75.46
2023-03-04T09:13:58.255Z,74.55
2023-03-04T09:16:24.840Z,74.47
2023-03-04T09:18:51.521Z,73.67
2023-03-04T09:21:18.101Z,73.63
2023-03-04T09:23:47.599Z,73.52
2023-03-04T09:26:26.832Z,72.74
2023-03-04T09:28:55.530Z,71.76
2023-03-04T09:31:22.272Z,71.71
2023-03-04T09:33:49.002Z,71.58
2023-03-04T09:36:15.985Z,70.98
2023-03-04T09:38:43.930Z,70.08
2023-03-04T09:41:24.278Z,69.78
2023-03-04T09:43:52.446Z,69.75
2023-03-04T09:46:27.503Z,70.12
2023-03-04T09:48:55.813Z,70.01
2023-03-04T09:51:25.426Z,69.39
2023-03-04T09:54:11.165Z,69.70
2023-03-04T09:56:39.878Z,69.75
2023-03-04T09:59:40.903Z,67.96
2023-03-04T10:02:22.856Z,67.54
2023-03-04T10:04:53.201Z,67.21
2023-03-04T10:07:34.421Z,66.92
2023-03-04T10:10:04.961Z,66.16
2023-03-04T10:12:35.711Z,67.32
2023-03-04T10:15:06.479Z,65.39
2023-03-04T10:17:38.083Z,65.36
2023-03-04T10:20:14.493Z,66.17
2023-03-04T10:22:49.548Z,65.49
2023-03-04T10:25:21.894Z,64.59
2023-03-04T10:28:03.159Z,63.94
2023-03-04T10:30:32.637Z,62.29
2023-03-04T10:32:59.604Z,61.85
2023-03-04T10:35:33.413Z,59.92
2023-03-04T10:38:03.488Z,59.81
2023-03-04T10:40:38.070Z,59.08
2023-03-04T10:43:14.828Z,58.29
2023-03-04T10:45:44.980Z,55.75
2023-03-04T10:48:29.220Z,54.06
2023-03-04T10:51:24.227Z,54.47
2023-03-04T10:53:58.207Z,55.29
2023-03-04T10:56:31.960Z,52.72
2023-03-04T10:59:53.823Z,51.28
2023-03-04T11:02:30.810Z,50.53
2023-03-04T11:05:17.840Z,49.88
2023-03-04T11:07:57.538Z,49.54
2023-03-04T11:10:31.766Z,47.81
2023-03-04T11:13:15.041Z,48.03
2023-03-04T11:15:58.446Z,46.66
2023-03-04T11:18:40.467Z,43.63
2023-03-04T11:21:14.695Z,43.11
2023-03-04T11:24:03.256Z,42.46
2023-03-04T11:26:45.379Z,41.36
2023-03-04T11:29:18.283Z,41.81
2023-03-04T11:32:12.669Z,39.35
2023-03-04T11:34:54.407Z,41.43
2023-03-04T11:37:45.907Z,39.64
2023-03-04T11:40:24.208Z,40.12
2023-03-04T11:43:00.753Z,40.02
2023-03-04T11:45:37.225Z,38.22
2023-03-04T11:48:24.741Z,38.47
2023-03-04T11:50:57.796Z,36.50
2023-03-04T11:53:56.067Z,35.87
2023-03-04T11:56:31.861Z,35.54
2023-03-04T11:59:10.353Z,35.25
2023-03-04T12:01:59.414Z,36.73
2023-03-04T12:05:03.711Z,36.46
2023-03-04T12:07:51.305Z,36.70
2023-03-04T12:10:20.785Z,35.42
2023-03-04T12:13:11.480Z,35.74
2023-03-04T12:15:46.508Z,33.35
2023-03-04T12:18:40.969Z,34.79
2023-03-04T12:21:19.543Z,34.02
2023-03-04T12:23:48.897Z,33.65
2023-03-04T12:26:30.474Z,33.40
2023-03-04T12:29:33.545Z,32.74
2023-03-04T12:32:21.539Z,34.12
2023-03-04T12:35:19.549Z,34.60
2023-03-04T12:38:00.521Z,33.71
2023-03-04T12:40:49.046Z,34.62
2023-03-04T12:43:39.332Z,34.76
2023-03-04T12:46:08.643Z,34.22
2023-03-04T12:48:46.295Z,32.63
2023-03-04T12:51:23.017Z,32.51
2023-03-04T12:54:03.265Z,33.55
2023-03-04T12:56:32.750Z,33.47
2023-03-04T12:59:00.591Z,34.62
2023-03-04T13:01:39.652Z,35.00
2023-03-04T13:04:34.065Z,35.16
2023-03-04T13:07:36.597Z,35.53
2023-03-04T13:10:16.651Z,35.42
2023-03-04T13:12:52.413Z,35.38
2023-03-04T13:15:32.905Z,34.07
2023-03-04T13:18:21.820Z,34.56
2023-03-04T13:21:23.792Z,33.85
2023-03-04T13:23:51.766Z,34.20
2023-03-04T13:26:18.827Z,33.16
2023-03-04T13:28:54.668Z,33.36
2023-03-04T13:31:27.212Z,32.97
2023-03-04T13:33:56.761Z,33.26
2023-03-04T13:36:34.755Z,34.31
2023-03-04T13:39:23.545Z,34.51
2023-03-04T13:41:53.645Z,35.40
2023-03-04T13:44:45.454Z,35.21
2023-03-04T13:47:21.575Z,34.63
2023-03-04T13:49:48.621Z,34.72
2023-03-04T13:52:43.662Z,35.85
2023-03-04T13:55:34.993Z,36.01
2023-03-04T13:58:14.309Z,35.62
2023-03-04T14:00:48.755Z,34.97
2023-03-04T14:03:22.662Z,37.04
2023-03-04T14:06:15.971Z,39.46
2023-03-04T14:08:46.750Z,38.31
2023-03-04T14:11:24.773Z,36.78
2023-03-04T14:13:52.420Z,36.30
2023-03-04T14:16:25.892Z,37.38
2023-03-04T14:19:01.218Z,35.23
2023-03-04T14:21:28.711Z,36.86
2023-03-04T14:24:23.524Z,36.77
2023-03-04T14:26:50.629Z,38.23
2023-03-04T14:29:26.367Z,38.24
2023-03-04T14:31:54.439Z,38.98
2023-03-04T14:34:37.809Z,40.22
2023-03-04T14:37:20.717Z,40.37
2023-03-04T14:39:53.537Z,41.33
2023-03-04T14:42:23.606Z,42.05
2023-03-04T14:44:51.217Z,41.93
2023-03-04T14:47:24.484Z,42.08
2023-03-04T14:49:51.449Z,43.01
2023-03-04T14:52:32.858Z,43.33
2023-03-04T14:55:17.836Z,43.45
2023-03-04T14:57:48.186Z,44.07
2023-03-04T15:00:26.049Z,43.91
2023-03-04T15:03:19.815Z,41.70
2023-03-04T15:05:47.851Z,42.42
2023-03-04T15:08:36.049Z,42.44
2023-03-04T15:11:05.570Z,42.89
2023-03-04T15:13:49.908Z,43.56
2023-03-04T15:16:19.593Z,43.56
2023-03-04T15:18:57.953Z,42.46
2023-03-04T15:21:28.369Z,41.13
2023-03-04T15:23:54.841Z,40.78
2023-03-04T15:26:21.370Z,40.75
2023-03-04T15:28:47.911Z,41.30
2023-03-04T15:31:22.553Z,40.96
2023-03-04T15:33:49.250Z,41.51
2023-03-04T15:36:23.348Z,42.24
2023-03-04T15:39:31.391Z,43.04
2023-03-04T15:42:12.427Z,43.80
2023-03-04T15:44:39.338Z,43.05
2023-03-04T15:47:08.778Z,42.63
2023-03-04T15:49:35.818Z,44.49
2023-03-04T15:52:06.146Z,45.63
2023-03-04T15:54:35.755Z,46.19
2023-03-04T16:07:50.931Z,48.20
2023-03-04T16:10:20.617Z,47.88
2023-03-04T16:12:51.935Z,47.61
2023-03-04T16:15:51.789Z,47.50
2023-03-04T16:18:18.337Z,47.93
2023-03-04T16:20:50.353Z,47.82
2023-03-04T16:23:20.902Z,48.61
2023-03-04T16:25:49.676Z,48.28
2023-03-04T16:28:18.905Z,47.16
2023-03-04T16:30:45.544Z,46.52
2023-03-04T16:33:12.079Z,46.44
2023-03-04T16:35:39.667Z,46.83
2023-03-04T16:38:18.957Z,47.32
2023-03-04T16:40:45.381Z,48.84
2023-03-04T16:43:14.133Z,49.25
2023-03-04T16:45:41.270Z,49.58
2023-03-04T16:48:07.732Z,49.88
2023-03-04T16:50:36.351Z,50.99
2023-03-04T16:53:04.488Z,51.58
2023-03-04T16:55:31.450Z,52.12
2023-03-04T16:57:58.299Z,52.33
2023-03-04T17:00:27.998Z,52.00
2023-03-04T17:02:57.939Z,52.06
2023-03-04T17:05:26.886Z,52.09
2023-03-04T17:07:53.610Z,51.98
2023-03-04T17:10:24.013Z,52.89
2023-03-04T17:12:54.216Z,52.75
2023-03-04T17:15:24.220Z,53.33
2023-03-04T17:17:56.815Z,53.68
2023-03-04T17:20:23.373Z,53.14
2023-03-04T17:22:53.629Z,53.51
2023-03-04T17:25:23.262Z,53.79
2023-03-04T17:27:51.776Z,54.36
2023-03-04T17:34:56.473Z,54.98
2023-03-04T17:37:54.921Z,54.78
2023-03-04T17:41:36.224Z,54.73
2023-03-04T17:44:03.132Z,55.25
2023-03-04T17:46:29.807Z,54.45
2023-03-04T17:48:59.139Z,53.61
2023-03-04T17:51:31.032Z,53.52
2023-03-04T17:53:57.656Z,53.51
2023-03-04T17:56:29.955Z,53.35
2023-03-04T17:59:01.135Z,53.28
2023-03-04T18:01:28.162Z,53.62
2023-03-04T18:03:55.030Z,53.46
2023-03-04T18:06:30.689Z,53.48
2023-03-04T18:08:57.177Z,53.67
2023-03-04T18:11:26.172Z,53.75
2023-03-04T18:14:01.135Z,53.34
2023-03-04T18:16:29.665Z,53.09
2023-03-04T18:18:58.518Z,54.12
2023-03-04T18:21:26.824Z,54.21
2023-03-04T18:23:53.896Z,53.33
2023-03-04T18:26:23.770Z,53.58
2023-03-04T18:28:55.532Z,54.14
2023-03-04T18:31:25.764Z,53.87
2023-03-04T18:33:52.994Z,54.04
2023-03-04T18:36:22.699Z,54.75
2023-03-04T18:38:51.422Z,54.14
2023-03-04T18:41:18.273Z,55.18
2023-03-04T18:43:45.256Z,55.34
2023-03-04T18:46:22.887Z,55.44
2023-03-04T18:48:56.391Z,56.04
2023-03-04T18:51:23.264Z,56.50
2023-03-04T18:54:55.840Z,57.20
2023-03-04T18:57:25.944Z,57.56
2023-03-04T18:59:58.579Z,57.63
2023-03-04T19:07:23.436Z,57.69
2023-03-04T19:13:24.066Z,56.41
2023-03-04T19:19:11.203Z,57.33
2023-03-04T19:21:38.866Z,57.45
2023-03-04T19:24:05.897Z,58.10
2023-03-04T19:26:32.824Z,57.97
2023-03-04T19:28:59.448Z,58.10
2023-03-04T19:31:25.912Z,58.03
2023-03-04T19:33:55.211Z,57.50
2023-03-04T19:36:23.060Z,58.03
2023-03-04T19:38:49.552Z,58.50
2023-03-04T19:41:17.539Z,58.75
2023-03-04T19:43:45.893Z,58.13
2023-03-04T19:46:13.721Z,59.38
2023-03-04T19:48:40.826Z,58.87
2023-03-04T19:51:20.505Z,58.94
2023-03-04T19:53:47.045Z,58.94
2023-03-04T19:56:13.489Z,59.13
2023-03-04T19:58:40.125Z,59.46
2023-03-04T20:01:06.647Z,59.90
2023-03-04T20:03:36.005Z,60.57
2023-03-04T20:06:05.092Z,60.18
2023-03-04T20:08:31.670Z,60.25
2023-03-04T20:10:58.292Z,61.16
2023-03-04T20:13:24.829Z,61.36
2023-03-04T20:15:51.296Z,61.66
2023-03-04T20:18:17.779Z,62.06
2023-03-04T20:20:44.305Z,63.07
2023-03-04T20:23:10.864Z,63.44
2023-03-04T20:25:37.354Z,63.51
2023-03-04T20:28:03.995Z,63.75
2023-03-04T20:30:30.469Z,64.44
2023-03-04T20:32:56.955Z,65.18
2023-03-04T20:35:27.393Z,64.92
2023-03-04T20:37:56.694Z,64.65
2023-03-04T20:40:26.154Z,64.85
2023-03-04T20:42:55.751Z,65.02
2023-03-04T20:45:25.491Z,65.46
2023-03-04T20:47:54.270Z,65.30
2023-03-04T20:50:20.869Z,64.39
2023-03-04T20:52:48.185Z,64.04
2023-03-04T20:55:14.698Z,64.21
2023-03-04T20:57:41.189Z,64.18
2023-03-04T21:00:10.541Z,63.81
2023-03-04T21:02:37.040Z,64.38
2023-03-04T21:05:03.909Z,63.87
2023-03-04T21:07:30.579Z,64.07
2023-03-04T21:09:57.049Z,64.54
2023-03-04T21:12:26.793Z,65.00
2023-03-04T21:14:56.349Z,64.52
2023-03-04T21:17:26.042Z,65.37
2023-03-04T21:19:56.009Z,65.94
2023-03-04T21:22:25.670Z,66.80
2023-03-04T21:24:54.209Z,67.32
2023-03-04T21:27:20.741Z,68.09
2023-03-04T21:29:49.368Z,68.17
2023-03-04T21:32:25.164Z,68.71
2023-03-04T21:34:55.925Z,69.09
2023-03-04T21:37:26.231Z,69.58
2023-03-04T21:39:58.046Z,70.14
2023-03-04T21:42:28.077Z,71.72
2023-03-04T21:44:57.644Z,71.91
2023-03-04T21:47:27.907Z,72.28
2023-03-04T21:49:57.681Z,72.84
2023-03-04T21:52:28.368Z,73.00
2023-03-04T21:54:58.449Z,72.72
2023-03-04T21:57:28.383Z,72.96
2023-03-04T21:59:58.730Z,73.08
2023-03-04T22:02:28.051Z,73.12
2023-03-04T22:04:56.647Z,73.60
2023-03-04T22:07:23.184Z,72.83
2023-03-04T22:09:49.986Z,72.86
2023-03-04T22:12:18.427Z,73.04
2023-03-04T22:14:46.064Z,72.68
2023-03-04T22:17:12.943Z,73.13
2023-03-04T22:19:39.544Z,72.76
2023-03-04T22:22:06.497Z,72.43
2023-03-04T22:24:33.021Z,72.98
2023-03-04T22:26:59.984Z,74.01
2023-03-04T22:29:29.536Z,74.37
2023-03-04T22:32:00.789Z,74.68
2023-03-04T22:34:28.101Z,75.28
2023-03-04T22:36:54.581Z,75.78
2023-03-04T22:39:22.861Z,75.67
2023-03-04T22:41:49.309Z,76.65
2023-03-04T22:44:16.025Z,76.79
2023-03-04T22:46:43.589Z,76.97
2023-03-04T22:49:12.656Z,77.53
2023-03-04T22:51:41.684Z,77.00
2023-03-04T22:54:10.700Z,77.38
2023-03-04T22:56:37.800Z,76.54
2023-03-04T22:59:04.353Z,77.38
2023-03-04T23:01:31.120Z,77.45
2023-03-04T23:03:59.670Z,78.06
2023-03-04T23:06:30.182Z,78.38
2023-03-04T23:09:02.020Z,77.91
2023-03-04T23:11:35.233Z,77.59
2023-03-04T23:14:06.246Z,78.32
2023-03-04T23:16:36.777Z,79.09
2023-03-04T23:19:05.640Z,79.12
2023-03-04T23:21:34.966Z,79.30
2023-03-04T23:24:03.418Z,79.88
2023-03-04T23:26:35.932Z,79.89
2023-03-04T23:29:04.344Z,80.57
2023-03-04T23:31:32.333Z,80.86
2023-03-04T23:34:02.646Z,81.10
2023-03-04T23:36:35.171Z,81.55
2023-03-04T23:39:02.620Z,82.16
2023-03-04T23:41:31.141Z,82.04
2023-03-04T23:44:01.666Z,81.91
2023-03-04T23:46:29.200Z,82.44
2023-03-04T23:48:56.825Z,82.93
2023-03-04T23:51:27.421Z,82.82
2023-03-04T23:53:54.719Z,83.40
2023-03-04T23:56:23.805Z,83.41
2023-03-04T23:58:50.785Z,83.56
